createdAt,value
2018-06-08T00:00:04.627Z,44.83
2018-06-08T00:01:10.626Z,44.20
2018-06-08T00:02:16.601Z,44.82
2018-06-08T00:03:22.864Z,44.15
2018-06-08T00:04:28.909Z,44.03
2018-06-08T00:05:34.547Z,44.29
2018-06-08T00:06:40.475Z,44.90
2018-06-08T00:07:46.101Z,44.61
2018-06-08T00:08:51.977Z,44.49
2018-06-08T00:09:57.923Z,44.46
2018-06-08T00:11:04.130Z,44.54
2018-06-08T00:12:10.088Z,44.56
2018-06-08T00:13:15.750Z,44.95
2018-06-08T00:14:21.737Z,44.48
2018-06-08T00:15:27.694Z,44.53
2018-06-08T00:16:33.676Z,45.32
2018-06-08T00:17:39.739Z,45.62
2018-06-08T00:18:45.754Z,45.05
2018-06-08T00:19:51.713Z,45.12
2018-06-08T00:20:57.680Z,44.93
2018-06-08T00:22:03.702Z,45.42
2018-06-08T00:23:09.681Z,45.24
2018-06-08T00:24:15.626Z,44.88
2018-06-08T00:25:21.682Z,45.54
2018-06-08T00:26:27.650Z,44.78
2018-06-08T00:27:33.663Z,45.54
2018-06-08T00:28:39.650Z,45.38
2018-06-08T00:29:45.603Z,45.29
2018-06-08T00:30:51.639Z,45.16
2018-06-08T00:31:57.662Z,46.06
2018-06-08T00:33:03.695Z,45.69
2018-06-08T00:34:09.321Z,46.45
2018-06-08T00:35:15.188Z,45.90
2018-06-08T00:36:21.148Z,45.79
2018-06-08T00:37:27.104Z,45.69
2018-06-08T00:38:33.110Z,46.51
2018-06-08T00:39:39.027Z,46.29
2018-06-08T00:40:44.947Z,46.46
2018-06-08T00:41:50.918Z,45.78
2018-06-08T00:42:56.891Z,46.41
2018-06-08T00:44:03.110Z,46.97
2018-06-08T00:45:09.206Z,46.13
2018-06-08T00:46:15.299Z,46.18
2018-06-08T00:47:21.274Z,46.42
2018-06-08T00:48:27.225Z,46.27
2018-06-08T00:49:33.194Z,46.41
2018-06-08T00:50:39.163Z,46.58
2018-06-08T00:51:45.133Z,46.20
2018-06-08T00:52:51.161Z,46.06
2018-06-08T00:53:57.219Z,46.53
2018-06-08T00:55:03.191Z,46.66
2018-06-08T00:56:23.495Z,47.07
2018-06-08T00:57:29.151Z,46.55
2018-06-08T00:58:35.136Z,46.61
2018-06-08T00:59:41.094Z,47.12
2018-06-08T01:00:47.074Z,46.43
2018-06-08T01:01:53.370Z,46.84
2018-06-08T01:02:59.332Z,46.78
2018-06-08T01:04:05.449Z,47.09
2018-06-08T01:05:11.411Z,47.43
2018-06-08T01:06:17.409Z,46.63
2018-06-08T01:07:23.715Z,46.88
2018-06-08T01:08:29.702Z,46.92
2018-06-08T01:09:35.655Z,46.79
2018-06-08T01:10:41.595Z,47.32
2018-06-08T01:11:47.573Z,47.45
2018-06-08T01:12:53.509Z,47.83
2018-06-08T01:13:59.209Z,47.62
2018-06-08T01:15:05.540Z,47.42
2018-06-08T01:16:11.782Z,47.50
2018-06-08T01:17:17.779Z,48.37
2018-06-08T01:18:23.763Z,48.37
2018-06-08T01:19:32.684Z,47.79
2018-06-08T01:20:38.907Z,48.59
2018-06-08T01:21:44.889Z,47.88
2018-06-08T01:22:50.887Z,48.46
2018-06-08T01:23:56.831Z,48.70
2018-06-08T01:25:02.794Z,48.66
2018-06-08T01:26:08.799Z,48.40
2018-06-08T01:27:14.920Z,48.63
2018-06-08T01:28:21.214Z,48.46
2018-06-08T01:29:27.301Z,48.45
2018-06-08T01:30:33.284Z,48.31
2018-06-08T01:31:39.392Z,48.61
2018-06-08T01:32:45.343Z,49.14
2018-06-08T01:33:51.329Z,48.99
2018-06-08T01:34:57.383Z,49.25
2018-06-08T01:36:03.325Z,49.27
2018-06-08T01:37:09.313Z,49.28
2018-06-08T01:38:15.348Z,48.40
2018-06-08T01:39:21.326Z,48.91
2018-06-08T01:40:27.327Z,49.68
2018-06-08T01:41:33.262Z,49.15
2018-06-08T01:42:39.329Z,49.71
2018-06-08T01:43:45.315Z,49.59
2018-06-08T01:44:51.282Z,50.36
2018-06-08T01:45:57.279Z,49.79
2018-06-08T01:47:03.223Z,50.62
2018-06-08T01:48:09.187Z,50.77
2018-06-08T01:49:15.137Z,50.48
2018-06-08T01:50:21.119Z,50.85
2018-06-08T01:51:27.078Z,51.34
2018-06-08T01:52:33.110Z,50.98
2018-06-08T01:53:39.080Z,51.03
2018-06-08T01:54:45.110Z,51.43
2018-06-08T01:55:51.076Z,51.82
2018-06-08T01:56:57.059Z,51.12
2018-06-08T01:58:03.022Z,51.46
2018-06-08T01:59:09.064Z,51.32
2018-06-08T02:00:15.009Z,51.50
2018-06-08T02:01:20.987Z,51.34
2018-06-08T02:02:27.070Z,52.22
2018-06-08T02:03:33.082Z,51.61
2018-06-08T02:04:39.045Z,51.42
2018-06-08T02:05:44.978Z,51.76
2018-06-08T02:06:50.966Z,52.05
2018-06-08T02:07:57.084Z,51.87
2018-06-08T02:09:03.117Z,51.78
2018-06-08T02:10:09.084Z,51.40
2018-06-08T02:11:15.056Z,52.18
2018-06-08T02:12:21.015Z,51.47
2018-06-08T02:13:26.939Z,51.67
2018-06-08T02:14:33.062Z,52.00
2018-06-08T02:15:39.035Z,52.38
2018-06-08T02:16:44.966Z,52.41
2018-06-08T02:17:51.093Z,51.81
2018-06-08T02:18:57.160Z,52.15
2018-06-08T02:20:03.145Z,51.92
2018-06-08T02:21:09.143Z,52.38
2018-06-08T02:22:15.181Z,52.82
2018-06-08T02:23:21.266Z,52.20
2018-06-08T02:24:27.205Z,52.31
2018-06-08T02:25:33.174Z,52.25
2018-06-08T02:26:39.105Z,52.65
2018-06-08T02:27:45.079Z,52.98
2018-06-08T02:28:51.063Z,52.49
2018-06-08T02:29:57.037Z,52.98
2018-06-08T02:31:02.989Z,53.14
2018-06-08T02:32:08.943Z,53.20
2018-06-08T02:33:14.903Z,53.34
2018-06-08T02:34:20.886Z,53.34
2018-06-08T02:35:26.839Z,53.57
2018-06-08T02:36:32.405Z,52.83
2018-06-08T02:37:38.248Z,53.80
2018-06-08T02:38:44.229Z,53.01
2018-06-08T02:39:50.219Z,53.33
2018-06-08T02:40:55.906Z,53.91
2018-06-08T02:42:01.767Z,53.86
2018-06-08T02:43:07.731Z,54.02
2018-06-08T02:44:13.718Z,53.79
2018-06-08T02:45:19.741Z,53.14
2018-06-08T02:46:25.693Z,53.74
2018-06-08T02:47:31.637Z,53.75
2018-06-08T02:48:37.667Z,53.28
2018-06-08T02:49:43.616Z,53.46
2018-06-08T02:50:49.254Z,53.31
2018-06-08T02:51:55.133Z,53.63
2018-06-08T02:53:01.130Z,53.48
2018-06-08T02:54:07.229Z,53.02
2018-06-08T02:55:13.187Z,52.75
2018-06-08T02:56:19.206Z,53.21
2018-06-08T02:57:25.167Z,52.50
2018-06-08T02:58:31.096Z,53.05
2018-06-08T02:59:37.419Z,53.07
2018-06-08T03:00:43.360Z,52.62
2018-06-08T03:01:49.323Z,52.68
2018-06-08T03:02:55.391Z,52.40
2018-06-08T03:04:01.316Z,52.78
2018-06-08T03:05:07.352Z,52.62
2018-06-08T03:06:13.323Z,53.02
2018-06-08T03:07:19.292Z,53.34
2018-06-08T03:08:25.250Z,52.96
2018-06-08T03:09:31.202Z,53.39
2018-06-08T03:10:37.174Z,53.47
2018-06-08T03:11:43.160Z,52.71
2018-06-08T03:12:49.136Z,53.32
2018-06-08T03:13:55.099Z,53.35
2018-06-08T03:15:01.057Z,52.83
2018-06-08T03:16:07.034Z,52.88
2018-06-08T03:17:12.968Z,53.49
2018-06-08T03:18:18.994Z,52.77
2018-06-08T03:19:24.943Z,52.93
2018-06-08T03:20:30.906Z,52.52
2018-06-08T03:21:36.942Z,53.60
2018-06-08T03:22:42.929Z,53.09
2018-06-08T03:23:48.546Z,52.74
2018-06-08T03:24:54.102Z,52.27
2018-06-08T03:25:59.979Z,52.39
2018-06-08T03:27:06.115Z,52.08
2018-06-08T03:28:12.084Z,52.40
2018-06-08T03:29:18.047Z,52.00
2018-06-08T03:30:24.022Z,51.97
2018-06-08T03:31:29.990Z,51.79
2018-06-08T03:32:36.035Z,51.97
2018-06-08T03:33:42.540Z,52.06
2018-06-08T03:34:48.514Z,51.33
2018-06-08T03:35:54.542Z,51.24
2018-06-08T03:37:00.684Z,50.92
2018-06-08T03:38:06.899Z,50.57
2018-06-08T03:39:12.992Z,51.22
2018-06-08T03:40:19.015Z,50.56
2018-06-08T03:41:25.127Z,51.17
2018-06-08T03:42:31.173Z,50.08
2018-06-08T03:43:37.107Z,50.13
2018-06-08T03:44:43.085Z,50.16
2018-06-08T03:45:49.228Z,50.91
2018-06-08T03:46:55.188Z,50.25
2018-06-08T03:48:01.177Z,50.11
2018-06-08T03:49:07.142Z,50.80
2018-06-08T03:50:13.120Z,50.93
2018-06-08T03:51:19.190Z,50.89
2018-06-08T03:52:24.922Z,50.83
2018-06-08T03:53:30.885Z,50.23
2018-06-08T03:54:36.835Z,50.74
2018-06-08T03:55:42.835Z,50.48
2018-06-08T03:56:49.331Z,50.60
2018-06-08T03:57:55.022Z,50.57
2018-06-08T03:59:00.549Z,50.57
2018-06-08T04:00:06.393Z,50.55
2018-06-08T04:01:12.310Z,50.43
2018-06-08T04:02:18.339Z,51.26
2018-06-08T04:03:24.299Z,50.41
2018-06-08T04:04:30.255Z,50.83
2018-06-08T04:05:36.287Z,50.28
2018-06-08T04:06:42.216Z,50.03
2018-06-08T04:07:48.187Z,50.69
2018-06-08T04:08:54.124Z,49.82
2018-06-08T04:10:00.088Z,50.42
2018-06-08T04:11:06.059Z,50.70
2018-06-08T04:12:11.800Z,50.38
2018-06-08T04:13:17.772Z,50.65
2018-06-08T04:14:23.771Z,49.79
2018-06-08T04:15:29.718Z,50.48
2018-06-08T04:16:35.671Z,50.28
2018-06-08T04:17:41.629Z,49.56
2018-06-08T04:18:47.609Z,49.76
2018-06-08T04:19:53.570Z,49.84
2018-06-08T04:20:59.539Z,49.86
2018-06-08T04:22:05.726Z,49.94
2018-06-08T04:23:11.675Z,49.72
2018-06-08T04:24:17.708Z,49.44
2018-06-08T04:25:23.567Z,49.66
2018-06-08T04:26:29.529Z,49.10
2018-06-08T04:27:35.140Z,49.71
2018-06-08T04:28:41.055Z,48.96
2018-06-08T04:29:47.028Z,49.62
2018-06-08T04:30:52.983Z,48.67
2018-06-08T04:31:59.041Z,49.08
2018-06-08T04:33:05.020Z,49.14
2018-06-08T04:34:11.138Z,49.00
2018-06-08T04:35:17.107Z,49.86
2018-06-08T04:36:23.073Z,49.80
2018-06-08T04:37:29.040Z,49.56
2018-06-08T04:38:34.998Z,49.89
2018-06-08T04:39:40.990Z,49.49
2018-06-08T04:40:47.079Z,49.79
2018-06-08T04:41:53.062Z,49.15
2018-06-08T04:42:58.995Z,49.78
2018-06-08T04:44:05.167Z,49.38
2018-06-08T04:45:10.810Z,49.68
2018-06-08T04:46:16.442Z,49.76
2018-06-08T04:47:22.318Z,48.83
2018-06-08T04:48:28.309Z,49.66
2018-06-08T04:49:34.265Z,48.89
2018-06-08T04:50:40.231Z,49.11
2018-06-08T04:51:45.985Z,49.10
2018-06-08T04:52:52.064Z,49.51
2018-06-08T04:53:58.113Z,50.31
2018-06-08T04:55:04.433Z,49.93
2018-06-08T04:56:10.051Z,50.62
2018-06-08T04:57:15.606Z,50.04
2018-06-08T04:58:21.503Z,50.59
2018-06-08T04:59:28.202Z,50.01
2018-06-08T05:00:34.213Z,50.73
2018-06-08T05:01:40.146Z,49.99
2018-06-08T05:02:46.142Z,50.74
2018-06-08T05:03:52.729Z,50.01
2018-06-08T05:04:58.701Z,49.99
2018-06-08T05:06:04.683Z,50.57
2018-06-08T05:07:10.678Z,50.99
2018-06-08T05:08:16.895Z,50.60
2018-06-08T05:09:22.858Z,50.38
2018-06-08T05:10:28.810Z,51.08
2018-06-08T05:11:34.722Z,50.99
2018-06-08T05:12:40.669Z,50.39
2018-06-08T05:13:46.661Z,50.61
2018-06-08T05:14:52.611Z,51.00
2018-06-08T05:15:58.578Z,51.08
2018-06-08T05:17:04.554Z,50.72
2018-06-08T05:18:10.489Z,51.43
2018-06-08T05:19:16.461Z,50.89
2018-06-08T05:20:22.510Z,51.58
2018-06-08T05:21:28.435Z,51.47
2018-06-08T05:22:34.687Z,51.46
2018-06-08T05:23:40.743Z,51.37
2018-06-08T05:24:46.821Z,50.72
2018-06-08T05:25:53.026Z,50.78
2018-06-08T05:26:59.032Z,50.88
2018-06-08T05:28:05.011Z,51.10
2018-06-08T05:29:11.139Z,51.04
2018-06-08T05:30:19.826Z,50.57
2018-06-08T05:31:25.785Z,50.94
2018-06-08T05:32:31.782Z,50.22
2018-06-08T05:33:37.810Z,50.35
2018-06-08T05:34:43.754Z,51.05
2018-06-08T05:35:50.129Z,50.05
2018-06-08T05:36:56.177Z,50.38
2018-06-08T05:38:02.221Z,50.06
2018-06-08T05:39:12.289Z,50.01
2018-06-08T05:40:18.640Z,49.49
2018-06-08T05:41:24.661Z,50.51
2018-06-08T05:42:30.660Z,50.12
2018-06-08T05:43:36.639Z,49.75
2018-06-08T05:44:42.586Z,49.95
2018-06-08T05:45:48.567Z,50.43
2018-06-08T05:46:54.607Z,49.56
2018-06-08T05:48:00.604Z,49.61
2018-06-08T05:49:06.567Z,49.69
2018-06-08T05:50:12.580Z,49.89
2018-06-08T05:51:18.551Z,49.45
2018-06-08T05:52:24.581Z,49.02
2018-06-08T05:53:30.567Z,49.00
2018-06-08T05:54:36.509Z,48.05
2018-06-08T05:55:42.567Z,46.63
2018-06-08T05:56:48.536Z,46.33
2018-06-08T05:57:59.802Z,46.05
2018-06-08T05:59:06.263Z,45.01
2018-06-08T06:00:12.192Z,43.80
2018-06-08T06:01:18.147Z,42.66
2018-06-08T06:02:24.310Z,41.71
2018-06-08T06:03:30.292Z,40.31
2018-06-08T06:04:36.247Z,39.77
2018-06-08T06:05:42.199Z,39.63
2018-06-08T06:06:48.180Z,37.16
2018-06-08T06:07:54.150Z,37.26
2018-06-08T06:09:00.127Z,36.16
2018-06-08T06:10:07.116Z,34.65
2018-06-08T06:11:13.216Z,34.05
2018-06-08T06:12:19.161Z,32.90
2018-06-08T06:13:25.103Z,32.61
2018-06-08T06:14:31.189Z,31.79
2018-06-08T06:15:37.285Z,30.45
2018-06-08T06:16:43.562Z,29.87
2018-06-08T06:17:49.699Z,29.01
2018-06-08T06:18:55.795Z,28.21
2018-06-08T06:20:02.087Z,28.20
2018-06-08T06:21:08.304Z,27.69
2018-06-08T06:22:14.279Z,27.64
2018-06-08T06:23:20.368Z,26.72
2018-06-08T06:24:26.519Z,25.88
2018-06-08T06:25:32.485Z,26.51
2018-06-08T06:26:38.132Z,25.47
2018-06-08T06:27:44.019Z,24.84
2018-06-08T06:28:50.104Z,24.43
2018-06-08T06:29:56.136Z,24.83
2018-06-08T06:31:02.136Z,24.39
2018-06-08T06:32:08.377Z,23.42
2018-06-08T06:33:14.360Z,22.88
2018-06-08T06:34:20.340Z,22.63
2018-06-08T06:35:26.379Z,22.00
2018-06-08T06:36:32.380Z,22.22
2018-06-08T06:37:38.476Z,22.35
2018-06-08T06:38:44.463Z,22.59
2018-06-08T06:39:50.478Z,22.14
2018-06-08T06:40:56.209Z,21.89
2018-06-08T06:42:02.120Z,21.16
2018-06-08T06:43:08.142Z,21.44
2018-06-08T06:44:14.008Z,20.89
2018-06-08T06:45:19.775Z,21.45
2018-06-08T06:46:25.466Z,21.00
2018-06-08T06:47:31.271Z,20.78
2018-06-08T06:48:36.978Z,20.76
2018-06-08T06:49:42.770Z,20.84
2018-06-08T06:50:48.504Z,20.50
2018-06-08T06:51:54.206Z,19.56
2018-06-08T06:52:59.990Z,19.95
2018-06-08T06:54:05.813Z,19.74
2018-06-08T06:55:11.551Z,19.33
2018-06-08T06:56:19.741Z,19.47
2018-06-08T06:57:25.354Z,19.66
2018-06-08T06:58:31.114Z,18.89
2018-06-08T06:59:36.822Z,18.90
2018-06-08T07:00:42.737Z,18.73
2018-06-08T07:01:48.429Z,18.44
2018-06-08T07:02:54.132Z,18.27
2018-06-08T07:03:59.824Z,17.78
2018-06-08T07:05:05.533Z,17.57
2018-06-08T07:06:11.156Z,17.42
2018-06-08T07:07:16.919Z,17.44
2018-06-08T07:08:22.724Z,17.47
2018-06-08T07:09:28.475Z,17.53
2018-06-08T07:10:34.271Z,17.68
2018-06-08T07:11:39.681Z,17.54
2018-06-08T07:12:45.347Z,17.86
2018-06-08T07:13:51.215Z,17.87
2018-06-08T07:14:56.918Z,17.73
2018-06-08T07:16:02.668Z,18.03
2018-06-08T07:17:08.487Z,17.84
2018-06-08T07:18:14.235Z,17.53
2018-06-08T07:19:20.091Z,17.79
2018-06-08T07:20:26.365Z,17.85
2018-06-08T07:21:31.710Z,17.63
2018-06-08T07:22:37.371Z,17.68
2018-06-08T07:23:43.135Z,17.46
2018-06-08T07:24:49.115Z,17.33
2018-06-08T07:25:55.050Z,17.01
2018-06-08T07:27:00.758Z,16.26
2018-06-08T07:28:06.455Z,16.29
2018-06-08T07:29:12.252Z,16.30
2018-06-08T07:30:18.159Z,16.16
2018-06-08T07:31:23.954Z,16.18
2018-06-08T07:32:30.270Z,16.12
2018-06-08T07:33:36.051Z,15.78
2018-06-08T07:34:42.057Z,16.11
2018-06-08T07:35:48.627Z,16.35
2018-06-08T07:36:54.347Z,16.41
2018-06-08T07:38:00.021Z,15.83
2018-06-08T07:39:08.103Z,15.87
2018-06-08T07:40:13.887Z,15.43
2018-06-08T07:41:19.936Z,15.16
2018-06-08T07:42:26.005Z,15.35
2018-06-08T07:43:32.027Z,15.29
2018-06-08T07:44:37.863Z,14.93
2018-06-08T07:45:43.342Z,15.00
2018-06-08T07:46:49.085Z,14.64
2018-06-08T07:47:55.015Z,14.95
2018-06-08T07:49:00.734Z,14.66
2018-06-08T07:50:06.137Z,14.76
2018-06-08T07:51:11.857Z,14.40
2018-06-08T07:52:17.634Z,14.38
2018-06-08T07:53:24.340Z,14.74
2018-06-08T07:54:30.123Z,14.74
2018-06-08T07:55:35.962Z,14.56
2018-06-08T07:56:41.831Z,14.72
2018-06-08T07:57:48.051Z,14.42
2018-06-08T07:58:53.811Z,14.36
2018-06-08T07:59:59.632Z,14.80
2018-06-08T08:01:05.769Z,15.14
2018-06-08T08:02:11.671Z,15.03
2018-06-08T08:03:17.469Z,15.16
2018-06-08T08:04:23.458Z,15.20
2018-06-08T08:05:29.251Z,15.17
2018-06-08T08:06:35.089Z,15.08
2018-06-08T08:07:40.763Z,14.70
2018-06-08T08:08:46.456Z,15.11
2018-06-08T08:09:52.214Z,14.88
2018-06-08T08:10:57.968Z,15.31
2018-06-08T08:12:03.732Z,15.41
2018-06-08T08:13:09.646Z,15.47
2018-06-08T08:14:17.068Z,15.59
2018-06-08T08:15:24.661Z,16.20
2018-06-08T08:16:30.370Z,16.52
2018-06-08T08:17:37.911Z,16.39
2018-06-08T08:18:45.216Z,15.78
2018-06-08T08:19:50.966Z,15.50
2018-06-08T08:20:56.671Z,15.70
2018-06-08T08:22:02.992Z,15.55
2018-06-08T08:23:08.706Z,15.99
2018-06-08T08:24:14.707Z,16.28
2018-06-08T08:25:20.726Z,16.38
2018-06-08T08:26:26.507Z,16.60
2018-06-08T08:27:32.485Z,17.05
2018-06-08T08:28:38.579Z,16.58
2018-06-08T08:29:44.275Z,16.31
2018-06-08T08:30:49.959Z,15.62
2018-06-08T08:31:55.696Z,15.46
2018-06-08T08:33:01.928Z,15.16
2018-06-08T08:34:08.208Z,15.04
2018-06-08T08:35:14.408Z,15.07
2018-06-08T08:36:20.558Z,15.09
2018-06-08T08:37:26.824Z,15.49
2018-06-08T08:38:32.883Z,16.13
2018-06-08T08:39:38.995Z,15.95
2018-06-08T08:40:44.774Z,16.07
2018-06-08T08:41:50.601Z,15.76
2018-06-08T08:42:56.365Z,16.17
2018-06-08T08:44:02.128Z,16.07
2018-06-08T08:45:07.967Z,16.51
2018-06-08T08:46:13.687Z,16.25
2018-06-08T08:47:19.522Z,16.41
2018-06-08T08:48:25.250Z,15.89
2018-06-08T08:49:30.958Z,16.10
2018-06-08T08:50:36.827Z,16.60
2018-06-08T08:51:42.549Z,16.51
2018-06-08T08:52:48.173Z,16.24
2018-06-08T08:53:54.303Z,16.42
2018-06-08T08:55:00.041Z,16.57
2018-06-08T08:56:06.871Z,16.54
2018-06-08T08:57:13.808Z,16.83
2018-06-08T08:58:19.897Z,16.71
2018-06-08T08:59:25.643Z,17.16
2018-06-08T09:00:31.353Z,17.43
2018-06-08T09:01:37.047Z,17.46
2018-06-08T09:02:42.823Z,17.72
2018-06-08T09:03:48.642Z,17.36
2018-06-08T09:04:54.626Z,17.24
2018-06-08T09:06:00.370Z,17.17
2018-06-08T09:07:06.194Z,16.92
2018-06-08T09:08:11.899Z,16.39
2018-06-08T09:09:17.588Z,16.13
2018-06-08T09:10:23.282Z,16.16
2018-06-08T09:11:29.034Z,16.55
2018-06-08T09:12:36.825Z,17.30
2018-06-08T09:13:43.147Z,17.23
2018-06-08T09:14:49.949Z,17.42
2018-06-08T09:15:57.049Z,17.53
2018-06-08T09:17:03.425Z,17.87
2018-06-08T09:18:10.081Z,17.81
2018-06-08T09:19:15.943Z,17.52
2018-06-08T09:20:21.679Z,16.95
2018-06-08T09:21:27.482Z,17.06
2018-06-08T09:22:33.199Z,17.05
2018-06-08T09:23:38.898Z,17.48
2018-06-08T09:24:44.642Z,16.99
2018-06-08T09:25:50.350Z,16.83
2018-06-08T09:26:55.762Z,16.96
2018-06-08T09:28:01.363Z,16.54
2018-06-08T09:29:07.033Z,16.20
2018-06-08T09:30:12.771Z,16.23
2018-06-08T09:31:18.674Z,16.48
2018-06-08T09:32:24.495Z,16.49
2018-06-08T09:33:30.281Z,16.71
2018-06-08T09:34:35.983Z,16.97
2018-06-08T09:35:41.672Z,16.73
2018-06-08T09:36:47.387Z,16.87
2018-06-08T09:37:53.095Z,16.78
2018-06-08T09:38:58.776Z,16.49
2018-06-08T09:40:04.504Z,16.57
2018-06-08T09:41:10.223Z,16.60
2018-06-08T09:42:15.918Z,16.54
2018-06-08T09:43:21.746Z,16.54
2018-06-08T09:44:27.458Z,15.79
2018-06-08T09:45:33.397Z,15.54
2018-06-08T09:46:39.155Z,15.22
2018-06-08T09:47:44.846Z,14.94
2018-06-08T09:48:50.319Z,15.01
2018-06-08T09:49:55.923Z,15.00
2018-06-08T09:51:01.684Z,14.98
2018-06-08T09:52:07.362Z,15.07
2018-06-08T09:53:13.055Z,15.25
2018-06-08T09:54:18.763Z,15.47
2018-06-08T09:55:24.467Z,14.91
2018-06-08T09:56:30.155Z,15.65
2018-06-08T09:57:35.886Z,15.46
2018-06-08T09:58:41.612Z,15.18
2018-06-08T09:59:47.336Z,15.74
2018-06-08T10:00:53.158Z,15.91
2018-06-08T10:01:58.832Z,16.00
2018-06-08T10:03:04.646Z,15.98
2018-06-08T10:04:10.311Z,15.62
2018-06-08T10:05:16.068Z,15.65
2018-06-08T10:06:21.943Z,15.96
2018-06-08T10:07:27.683Z,15.66
2018-06-08T10:08:33.398Z,15.79
2018-06-08T10:09:39.155Z,15.61
2018-06-08T10:10:44.882Z,15.86
2018-06-08T10:11:50.621Z,15.30
2018-06-08T10:12:56.365Z,16.02
2018-06-08T10:14:02.059Z,15.81
2018-06-08T10:15:08.110Z,15.82
2018-06-08T10:16:14.218Z,16.00
2018-06-08T10:17:20.012Z,15.81
2018-06-08T10:18:25.708Z,16.15
2018-06-08T10:19:31.442Z,15.90
2018-06-08T10:20:37.172Z,16.50
2018-06-08T10:21:42.892Z,16.81
2018-06-08T10:22:48.596Z,16.84
2018-06-08T10:23:54.292Z,16.85
2018-06-08T10:25:00.039Z,17.15
2018-06-08T10:26:05.757Z,17.39
2018-06-08T10:27:11.499Z,17.12
2018-06-08T10:28:17.194Z,17.88
2018-06-08T10:29:23.103Z,17.73
2018-06-08T10:30:28.782Z,18.02
2018-06-08T10:31:34.487Z,18.19
2018-06-08T10:32:40.200Z,18.70
2018-06-08T10:33:45.885Z,18.47
2018-06-08T10:34:51.590Z,18.73
2018-06-08T10:35:57.337Z,19.51
2018-06-08T10:37:03.038Z,19.45
2018-06-08T10:38:09.128Z,19.93
2018-06-08T10:39:14.838Z,20.49
2018-06-08T10:40:20.588Z,20.68
2018-06-08T10:41:26.453Z,21.29
2018-06-08T10:42:32.213Z,21.56
2018-06-08T10:43:37.930Z,21.58
2018-06-08T10:44:44.024Z,21.49
2018-06-08T10:45:50.171Z,22.17
2018-06-08T10:46:56.132Z,22.80
2018-06-08T10:48:02.096Z,22.82
2018-06-08T10:49:08.111Z,23.26
2018-06-08T10:50:14.163Z,22.53
2018-06-08T10:51:20.115Z,22.44
2018-06-08T10:52:26.108Z,22.84
2018-06-08T10:53:32.090Z,23.27
2018-06-08T10:54:38.415Z,23.66
2018-06-08T10:55:44.373Z,23.98
2018-06-08T10:56:50.825Z,23.98
2018-06-08T10:57:56.842Z,23.22
2018-06-08T10:59:02.460Z,22.51
2018-06-08T11:00:08.392Z,23.54
2018-06-08T11:01:14.463Z,23.47
2018-06-08T11:02:20.485Z,24.03
2018-06-08T11:03:26.470Z,24.19
2018-06-08T11:04:32.425Z,23.53
2018-06-08T11:05:38.431Z,24.14
2018-06-08T11:06:44.469Z,24.00
2018-06-08T11:07:50.566Z,24.11
2018-06-08T11:08:56.611Z,23.69
2018-06-08T11:10:02.980Z,23.90
2018-06-08T11:11:09.048Z,23.97
2018-06-08T11:12:15.063Z,23.65
2018-06-08T11:13:21.559Z,24.04
2018-06-08T11:14:27.535Z,23.34
2018-06-08T11:15:33.483Z,23.67
2018-06-08T11:16:39.471Z,23.71
2018-06-08T11:17:45.476Z,22.92
2018-06-08T11:18:51.489Z,23.10
2018-06-08T11:19:57.546Z,23.82
2018-06-08T11:21:03.682Z,23.41
2018-06-08T11:22:09.686Z,23.75
2018-06-08T11:23:15.394Z,23.09
2018-06-08T11:24:21.575Z,23.32
2018-06-08T11:25:27.594Z,23.71
2018-06-08T11:26:33.602Z,22.15
2018-06-08T11:27:39.591Z,22.63
2018-06-08T11:28:45.581Z,23.00
2018-06-08T11:29:51.547Z,22.02
2018-06-08T11:30:57.533Z,21.67
2018-06-08T11:32:03.529Z,22.96
2018-06-08T11:33:09.512Z,22.56
2018-06-08T11:34:15.482Z,23.01
2018-06-08T11:35:21.457Z,23.75
2018-06-08T11:36:27.500Z,23.43
2018-06-08T11:37:33.186Z,24.71
2018-06-08T11:38:39.269Z,24.43
2018-06-08T11:39:45.213Z,24.70
2018-06-08T11:40:51.198Z,23.68
2018-06-08T11:41:57.207Z,24.44
2018-06-08T11:43:03.261Z,23.83
2018-06-08T11:44:09.240Z,23.01
2018-06-08T11:45:15.193Z,23.35
2018-06-08T11:46:21.164Z,23.34
2018-06-08T11:47:27.090Z,22.66
2018-06-08T11:48:33.059Z,24.08
2018-06-08T11:49:39.104Z,23.50
2018-06-08T11:50:45.084Z,24.58
2018-06-08T11:51:51.062Z,24.94
2018-06-08T11:52:56.665Z,23.87
2018-06-08T11:54:02.284Z,24.77
2018-06-08T11:55:08.212Z,24.60
2018-06-08T11:56:14.314Z,24.56
2018-06-08T11:57:20.276Z,24.42
2018-06-08T11:58:25.978Z,23.30
2018-06-08T11:59:31.842Z,23.20
2018-06-08T12:00:37.843Z,21.89
2018-06-08T12:01:43.829Z,23.42
2018-06-08T12:02:50.417Z,23.21
2018-06-08T12:03:56.379Z,22.40
2018-06-08T12:05:02.342Z,22.18
2018-06-08T12:06:08.352Z,22.13
2018-06-08T12:07:14.326Z,21.71
2018-06-08T12:08:20.255Z,21.58
2018-06-08T12:09:26.234Z,21.79
2018-06-08T12:10:32.184Z,21.91
2018-06-08T12:11:38.512Z,21.73
2018-06-08T12:12:44.456Z,21.62
2018-06-08T12:13:50.426Z,21.74
2018-06-08T12:14:57.182Z,21.63
2018-06-08T12:16:03.138Z,21.85
2018-06-08T12:17:09.123Z,20.81
2018-06-08T12:18:15.366Z,20.68
2018-06-08T12:19:21.797Z,20.94
2018-06-08T12:20:28.486Z,21.06
2018-06-08T12:21:34.447Z,21.16
2018-06-08T12:22:40.447Z,21.57
2018-06-08T12:23:46.399Z,20.88
2018-06-08T12:24:52.362Z,21.47
2018-06-08T12:25:58.343Z,21.66
2018-06-08T12:27:04.335Z,21.67
2018-06-08T12:28:10.333Z,20.88
2018-06-08T12:29:16.042Z,21.70
2018-06-08T12:30:21.934Z,21.01
2018-06-08T12:31:27.903Z,21.04
2018-06-08T12:32:33.875Z,21.61
2018-06-08T12:33:39.851Z,21.58
2018-06-08T12:34:45.559Z,21.74
2018-06-08T12:35:51.472Z,21.61
2018-06-08T12:36:57.456Z,21.04
2018-06-08T12:38:03.413Z,20.93
2018-06-08T12:39:09.627Z,21.38
2018-06-08T12:40:15.639Z,21.44
2018-06-08T12:41:21.611Z,22.10
2018-06-08T12:42:27.547Z,22.03
2018-06-08T12:43:33.546Z,21.73
2018-06-08T12:44:39.718Z,21.62
2018-06-08T12:45:45.675Z,22.71
2018-06-08T12:46:51.647Z,22.75
2018-06-08T12:47:57.919Z,22.44
2018-06-08T12:49:03.908Z,22.70
2018-06-08T12:50:10.005Z,22.43
2018-06-08T12:51:15.996Z,21.46
2018-06-08T12:52:21.940Z,21.97
2018-06-08T12:53:27.913Z,21.72
2018-06-08T12:54:34.327Z,22.04
2018-06-08T12:55:40.361Z,21.32
2018-06-08T12:56:46.152Z,21.42
2018-06-08T12:57:52.120Z,21.93
2018-06-08T12:58:58.087Z,22.11
2018-06-08T13:00:04.143Z,22.08
2018-06-08T13:01:10.143Z,22.09
2018-06-08T13:02:15.762Z,23.08
2018-06-08T13:03:21.697Z,22.63
2018-06-08T13:04:27.679Z,21.69
2018-06-08T13:05:33.712Z,21.35
2018-06-08T13:06:39.692Z,21.74
2018-06-08T13:07:45.673Z,21.56
2018-06-08T13:08:51.786Z,21.71
2018-06-08T13:09:57.730Z,21.97
2018-06-08T13:11:03.695Z,21.37
2018-06-08T13:12:09.698Z,21.05
2018-06-08T13:13:15.665Z,21.79
2018-06-08T13:14:21.286Z,21.28
2018-06-08T13:15:26.856Z,21.14
2018-06-08T13:16:32.710Z,21.90
2018-06-08T13:17:38.791Z,21.84
2018-06-08T13:18:44.791Z,21.53
2018-06-08T13:19:50.773Z,21.49
2018-06-08T13:20:56.736Z,21.39
2018-06-08T13:22:02.749Z,21.40
2018-06-08T13:23:08.735Z,21.69
2018-06-08T13:24:14.702Z,22.10
2018-06-08T13:25:20.363Z,21.95
2018-06-08T13:26:26.324Z,21.40
2018-06-08T13:27:32.432Z,21.80
2018-06-08T13:28:38.418Z,22.30
2018-06-08T13:29:44.391Z,21.14
2018-06-08T13:30:50.625Z,21.44
2018-06-08T13:31:56.620Z,21.42
2018-06-08T13:33:02.598Z,22.17
2018-06-08T13:34:08.867Z,21.45
2018-06-08T13:35:14.852Z,22.41
2018-06-08T13:36:20.875Z,22.26
2018-06-08T13:37:26.875Z,21.89
2018-06-08T13:38:32.986Z,21.97
2018-06-08T13:39:38.929Z,22.38
2018-06-08T13:40:45.055Z,21.77
2018-06-08T13:41:51.028Z,21.93
2018-06-08T13:42:56.998Z,22.16
2018-06-08T13:44:03.190Z,23.39
2018-06-08T13:45:09.206Z,23.10
2018-06-08T13:46:56.115Z,22.37
2018-06-08T13:48:02.056Z,23.02
2018-06-08T13:49:08.012Z,22.62
2018-06-08T13:50:14.018Z,22.95
2018-06-08T13:51:19.966Z,23.28
2018-06-08T13:52:25.980Z,23.90
2018-06-08T13:53:32.106Z,23.13
2018-06-08T13:54:38.065Z,22.81
2018-06-08T13:55:44.180Z,22.76
2018-06-08T13:56:50.311Z,22.75
2018-06-08T13:57:56.305Z,22.89
2018-06-08T13:59:02.563Z,22.84
2018-06-08T14:00:08.316Z,21.69
2018-06-08T14:01:14.330Z,22.36
2018-06-08T14:02:20.283Z,22.80
2018-06-08T14:03:26.227Z,22.63
2018-06-08T14:04:32.210Z,22.32
2018-06-08T14:05:38.224Z,22.41
2018-06-08T14:06:44.239Z,21.83
2018-06-08T14:07:50.234Z,22.10
2018-06-08T14:08:56.191Z,22.05
2018-06-08T14:10:02.148Z,22.40